Hingham, Montana
Current Conditions -  °F | °C
As of 6:53 AM on Sunday 23 Nov 2014 (Local Time) from KHVR Reporting Station
Overcast Overcast  
Wind Chill: 24°   Ceiling: 9500
Heat Index: 32°   Visibility: 10mi
Dew Point: 24°   Wind: 10mph
Humidity: 73%   Direction: 270°W
Pressure: 29.85"   Gusts: NA
Location:  48.55°N, 110.42°W
Report Text: KHVR 231353Z AUTO 27009KT 10SM SCT046 OVC095 00/M04 A2985 RMK AO2 SLP128 T00001044
Loading
Personal Weather Stations






























Interactive Weather Map New forecast layout! Learn more

10-Day Weather Forecast

Advertisements
Track Severe Weather on mobile